createdAt,value
2024-03-12T00:01:11.706Z,16.60
2024-03-12T00:06:42.567Z,13.07
2024-03-12T00:12:00.734Z,11.35
2024-03-12T00:17:29.457Z,14.05
2024-03-12T00:22:45.973Z,13.93
2024-03-12T00:28:03.151Z,14.63
2024-03-12T00:33:20.886Z,14.25
2024-03-12T00:38:23.227Z,15.80
2024-03-12T00:43:27.392Z,15.15
2024-03-12T00:48:26.283Z,10.20
2024-03-12T00:53:26.413Z,13.57
2024-03-12T00:58:27.534Z,11.00
2024-03-12T01:03:27.184Z,10.93
2024-03-12T01:08:32.490Z,12.52
2024-03-12T01:18:27.954Z,11.75
2024-03-12T01:23:27.719Z,9.85
2024-03-12T01:28:29.095Z,11.90
2024-03-12T01:33:32.923Z,13.77
2024-03-12T01:38:43.247Z,12.18
2024-03-12T01:44:09.364Z,12.75
2024-03-12T01:49:14.922Z,10.50
2024-03-12T01:54:27.552Z,13.65
2024-03-12T01:59:30.952Z,10.32
2024-03-12T02:04:32.083Z,9.82
2024-03-12T02:09:50.534Z,12.57
2024-03-12T02:14:54.947Z,12.68
2024-03-12T02:20:00.944Z,13.52
2024-03-12T02:25:07.200Z,11.25
2024-03-12T02:30:17.189Z,11.52
2024-03-12T02:35:20.694Z,9.85
2024-03-12T02:40:26.991Z,10.07
2024-03-12T02:45:33.641Z,11.30
2024-03-12T02:50:42.108Z,14.43
2024-03-12T02:55:46.932Z,10.77
2024-03-12T03:00:57.162Z,14.20
2024-03-12T03:05:58.900Z,10.75
2024-03-12T03:11:10.492Z,9.63
2024-03-12T03:16:12.809Z,9.48
2024-03-12T03:21:22.694Z,10.02
2024-03-12T03:26:25.756Z,10.77
2024-03-12T03:31:30.360Z,12.30
2024-03-12T03:36:33.412Z,11.45
2024-03-12T03:41:39.794Z,12.45
2024-03-12T03:46:38.167Z,9.15
2024-03-12T03:51:38.769Z,14.10
2024-03-12T03:56:48.488Z,10.45
2024-03-12T04:01:53.318Z,12.27
2024-03-12T04:07:30.503Z,13.45
2024-03-12T04:12:56.897Z,12.52
2024-03-12T04:17:55.133Z,14.68
2024-03-12T04:22:55.429Z,9.50
2024-03-12T04:27:54.464Z,12.82
2024-03-12T04:33:00.073Z,12.90
2024-03-12T04:38:00.600Z,10.65
2024-03-12T04:42:58.926Z,12.40
2024-03-12T04:47:57.728Z,10.52
2024-03-12T04:52:55.876Z,14.95
2024-03-12T04:57:56.641Z,12.25
2024-03-12T05:20:59.847Z,15.85
2024-03-12T05:27:25.460Z,12.27
2024-03-12T05:32:50.211Z,11.25
2024-03-12T05:38:15.520Z,15.10
2024-03-12T05:43:37.566Z,19.58
2024-03-12T05:48:46.758Z,14.65
2024-03-12T05:54:22.483Z,13.50
2024-03-12T05:59:43.614Z,13.50
2024-03-12T06:04:47.346Z,15.35
2024-03-12T06:09:46.441Z,15.07
2024-03-12T06:14:55.046Z,10.50
2024-03-12T06:19:52.952Z,12.60
2024-03-12T06:24:54.813Z,16.45
2024-03-12T06:30:07.841Z,16.73
2024-03-12T06:35:14.846Z,14.93
2024-03-12T06:40:17.766Z,14.45
2024-03-12T06:45:29.114Z,17.98
2024-03-12T06:50:44.705Z,16.55
2024-03-12T06:56:10.433Z,16.58
2024-03-12T07:01:21.604Z,19.27
2024-03-12T07:06:20.941Z,19.42
2024-03-12T07:11:35.360Z,20.40
2024-03-12T07:17:14.899Z,24.10
2024-03-12T07:28:48.253Z,19.58
2024-03-12T07:34:20.773Z,17.05
2024-03-12T07:39:42.260Z,16.98
2024-03-12T07:45:34.051Z,16.05
2024-03-12T07:50:46.551Z,13.77
2024-03-12T07:56:04.922Z,22.33
2024-03-12T08:07:24.498Z,17.50
2024-03-12T08:12:45.348Z,15.02
2024-03-12T08:24:11.532Z,14.70
2024-03-12T08:29:08.852Z,17.10
2024-03-12T08:34:07.087Z,17.70
2024-03-12T08:39:11.929Z,19.52
2024-03-12T08:44:10.104Z,16.23
2024-03-12T08:49:11.671Z,14.05
2024-03-12T08:54:10.282Z,14.48
2024-03-12T08:59:09.521Z,15.23
2024-03-12T09:04:36.502Z,13.75
2024-03-12T09:11:14.144Z,13.40
2024-03-12T09:17:07.814Z,13.20
2024-03-12T09:28:20.245Z,15.02
2024-03-12T09:33:20.628Z,14.93
2024-03-12T09:38:31.385Z,13.73
2024-03-12T09:43:34.709Z,14.15
2024-03-12T09:48:34.951Z,15.05
2024-03-12T09:53:33.915Z,14.40
2024-03-12T09:58:31.412Z,16.60
2024-03-12T10:03:30.531Z,18.00
2024-03-12T10:08:31.864Z,12.85
2024-03-12T10:13:33.535Z,9.05
2024-03-12T10:19:01.595Z,8.57
2024-03-12T10:24:19.737Z,10.80
2024-03-12T10:29:19.941Z,9.60
2024-03-12T10:34:20.498Z,12.70
2024-03-12T10:39:29.787Z,8.70
2024-03-12T10:44:32.756Z,7.40
2024-03-12T10:49:31.392Z,8.38
2024-03-12T10:54:35.525Z,8.57
2024-03-12T10:59:38.292Z,9.43
2024-03-12T11:04:38.154Z,9.40
2024-03-12T11:09:39.008Z,8.70
2024-03-12T11:14:49.722Z,8.73
2024-03-12T11:19:53.109Z,8.02
2024-03-12T11:24:51.994Z,12.40
2024-03-12T11:30:19.404Z,10.10
2024-03-12T11:35:30.293Z,10.90
2024-03-12T11:40:29.505Z,9.30
2024-03-12T11:45:39.175Z,10.38
2024-03-12T11:50:40.162Z,13.80
2024-03-12T11:55:59.720Z,10.15
2024-03-12T12:00:59.576Z,10.20
2024-03-12T12:06:00.125Z,9.27
2024-03-12T12:11:05.997Z,10.95
2024-03-12T12:16:05.507Z,12.25
2024-03-12T12:21:09.910Z,10.60
2024-03-12T12:26:12.582Z,10.33
2024-03-12T12:31:17.006Z,8.40
2024-03-12T12:36:16.874Z,10.02
2024-03-12T12:41:14.741Z,9.63
2024-03-12T12:46:20.834Z,10.57
2024-03-12T12:51:20.802Z,11.20
2024-03-12T12:56:19.809Z,9.13
2024-03-12T13:01:24.826Z,7.90
2024-03-12T13:06:27.435Z,8.23
2024-03-12T13:11:30.314Z,10.07
2024-03-12T13:16:39.874Z,11.23
2024-03-12T13:21:38.171Z,10.82
2024-03-12T13:26:36.425Z,10.18
2024-03-12T13:31:34.917Z,13.95
2024-03-12T13:36:32.344Z,11.65
2024-03-12T13:41:30.083Z,12.30
2024-03-12T13:46:28.725Z,11.57
2024-03-12T13:51:27.007Z,12.85
2024-03-12T13:56:24.492Z,11.13
2024-03-12T14:01:23.619Z,12.57
2024-03-12T14:06:21.155Z,11.00
2024-03-12T14:11:25.924Z,11.75
2024-03-12T14:16:27.094Z,15.48
2024-03-12T14:21:28.880Z,15.98
2024-03-12T14:26:29.761Z,13.05
2024-03-12T14:31:28.335Z,16.13
2024-03-12T14:36:26.129Z,13.18
2024-03-12T14:41:27.797Z,13.48
2024-03-12T14:46:27.133Z,11.32
2024-03-12T14:51:24.849Z,15.30
2024-03-12T14:56:24.736Z,13.95
2024-03-12T15:01:23.683Z,14.00
2024-03-12T15:11:58.835Z,14.88
2024-03-12T15:17:35.340Z,17.25
2024-03-12T15:28:11.260Z,14.40
2024-03-12T15:33:09.871Z,16.65
2024-03-12T15:38:13.737Z,15.43
2024-03-12T15:43:29.988Z,15.75
2024-03-12T15:48:41.830Z,14.68
2024-03-12T15:54:05.471Z,16.48
2024-03-12T15:59:10.893Z,17.00
2024-03-12T16:04:35.780Z,13.32
2024-03-12T16:09:36.295Z,16.15
2024-03-12T16:14:35.000Z,15.63
2024-03-12T16:19:44.328Z,15.65
2024-03-12T16:24:45.984Z,16.05
2024-03-12T16:29:56.952Z,15.60
2024-03-12T16:35:23.094Z,17.25
2024-03-12T16:40:55.799Z,16.80
2024-03-12T17:05:35.042Z,22.92
2024-03-12T17:19:23.837Z,15.88
2024-03-12T17:32:35.712Z,18.15
2024-03-12T17:38:49.935Z,17.73
2024-03-12T19:20:38.736Z,21.00
